sensor_id;sensor_type;location;lat;lon;timestamp;temperature;humidity
41756;DHT22;27435;48.480;9.258;2022-12-10T00:01:12;0.60;99.00
41756;DHT22;27435;48.480;9.258;2022-12-10T00:03:38;0.70;99.00
41756;DHT22;27435;48.480;9.258;2022-12-10T00:06:07;0.60;99.00
41756;DHT22;27435;48.480;9.258;2022-12-10T00:08:34;0.70;99.00
41756;DHT22;27435;48.480;9.258;2022-12-10T00:10:59;0.80;99.00
41756;DHT22;27435;48.480;9.258;2022-12-10T00:13:27;0.80;99.00
41756;DHT22;27435;48.480;9.258;2022-12-10T00:15:52;0.80;99.00
41756;DHT22;27435;48.480;9.258;2022-12-10T00:18:18;0.80;99.00
41756;DHT22;27435;48.480;9.258;2022-12-10T00:20:44;0.80;99.00
41756;DHT22;27435;48.480;9.258;2022-12-10T00:23:09;0.80;99.00
41756;DHT22;27435;48.480;9.258;2022-12-10T00:25:35;0.80;99.00
41756;DHT22;27435;48.480;9.258;2022-12-10T00:28:00;0.70;99.00
41756;DHT22;27435;48.480;9.258;2022-12-10T00:30:26;0.70;99.00
41756;DHT22;27435;48.480;9.258;2022-12-10T00:32:52;0.70;99.00
41756;DHT22;27435;48.480;9.258;2022-12-10T00:35:17;0.70;99.00
41756;DHT22;27435;48.480;9.258;2022-12-10T00:37:43;0.70;99.00
41756;DHT22;27435;48.480;9.258;2022-12-10T00:40:09;0.70;99.00
41756;DHT22;27435;48.480;9.258;2022-12-10T00:42:36;0.80;99.00
41756;DHT22;27435;48.480;9.258;2022-12-10T00:45:03;0.90;99.00
41756;DHT22;27435;48.480;9.258;2022-12-10T00:47:28;1.00;99.00
41756;DHT22;27435;48.480;9.258;2022-12-10T00:49:54;1.10;99.00
41756;DHT22;27435;48.480;9.258;2022-12-10T00:52:19;1.20;99.00
41756;DHT22;27435;48.480;9.258;2022-12-10T00:54:45;1.20;99.00
41756;DHT22;27435;48.480;9.258;2022-12-10T00:57:10;1.00;99.00
41756;DHT22;27435;48.480;9.258;2022-12-10T00:59:36;0.90;99.00
41756;DHT22;27435;48.480;9.258;2022-12-10T01:02:02;1.10;99.00
41756;DHT22;27435;48.480;9.258;2022-12-10T01:04:27;0.90;99.00
41756;DHT22;27435;48.480;9.258;2022-12-10T01:06:54;0.90;99.00
41756;DHT22;27435;48.480;9.258;2022-12-10T01:09:27;0.80;99.00
41756;DHT22;27435;48.480;9.258;2022-12-10T01:11:55;0.60;99.00
41756;DHT22;27435;48.480;9.258;2022-12-10T01:14:24;0.70;99.00
41756;DHT22;27435;48.480;9.258;2022-12-10T01:16:53;0.70;99.00
41756;DHT22;27435;48.480;9.258;2022-12-10T01:19:20;0.80;99.00
41756;DHT22;27435;48.480;9.258;2022-12-10T01:21:50;0.90;99.00
41756;DHT22;27435;48.480;9.258;2022-12-10T01:24:15;0.80;99.00
41756;DHT22;27435;48.480;9.258;2022-12-10T01:26:41;0.80;99.00
41756;DHT22;27435;48.480;9.258;2022-12-10T01:29:06;1.00;99.00
41756;DHT22;27435;48.480;9.258;2022-12-10T01:31:34;1.00;99.00
41756;DHT22;27435;48.480;9.258;2022-12-10T01:34:01;1.10;99.00
41756;DHT22;27435;48.480;9.258;2022-12-10T01:36:32;1.10;99.00
41756;DHT22;27435;48.480;9.258;2022-12-10T01:38:59;1.20;99.00
41756;DHT22;27435;48.480;9.258;2022-12-10T01:41:28;1.30;99.00
41756;DHT22;27435;48.480;9.258;2022-12-10T01:44:00;1.30;99.00
41756;DHT22;27435;48.480;9.258;2022-12-10T01:46:31;1.20;99.00
41756;DHT22;27435;48.480;9.258;2022-12-10T01:48:59;1.20;99.00
41756;DHT22;27435;48.480;9.258;2022-12-10T01:51:28;1.20;99.00
41756;DHT22;27435;48.480;9.258;2022-12-10T01:53:54;1.20;99.00
41756;DHT22;27435;48.480;9.258;2022-12-10T01:56:20;1.20;99.00
41756;DHT22;27435;48.480;9.258;2022-12-10T01:58:47;1.30;99.00
41756;DHT22;27435;48.480;9.258;2022-12-10T02:01:34;1.30;99.00
41756;DHT22;27435;48.480;9.258;2022-12-10T02:04:29;1.10;99.00
41756;DHT22;27435;48.480;9.258;2022-12-10T02:07:22;1.10;99.00
41756;DHT22;27435;48.480;9.258;2022-12-10T02:15:39;1.00;99.00
41756;DHT22;27435;48.480;9.258;2022-12-10T02:18:12;0.90;99.00
41756;DHT22;27435;48.480;9.258;2022-12-10T02:20:48;0.90;99.00
41756;DHT22;27435;48.480;9.258;2022-12-10T02:23:24;1.00;99.00
41756;DHT22;27435;48.480;9.258;2022-12-10T02:25:59;0.80;99.00
41756;DHT22;27435;48.480;9.258;2022-12-10T02:29:03;0.80;99.00
41756;DHT22;27435;48.480;9.258;2022-12-10T02:31:31;0.80;99.00
41756;DHT22;27435;48.480;9.258;2022-12-10T02:34:00;0.80;99.00
41756;DHT22;27435;48.480;9.258;2022-12-10T02:36:31;0.80;99.00
41756;DHT22;27435;48.480;9.258;2022-12-10T02:39:00;0.80;99.00
41756;DHT22;27435;48.480;9.258;2022-12-10T02:41:30;0.70;99.00
41756;DHT22;27435;48.480;9.258;2022-12-10T02:43:57;0.90;99.00
41756;DHT22;27435;48.480;9.258;2022-12-10T02:46:25;0.90;99.00
41756;DHT22;27435;48.480;9.258;2022-12-10T02:48:54;1.10;99.00
41756;DHT22;27435;48.480;9.258;2022-12-10T02:51:20;1.20;99.00
41756;DHT22;27435;48.480;9.258;2022-12-10T02:53:46;1.30;99.00
41756;DHT22;27435;48.480;9.258;2022-12-10T02:56:19;1.30;99.00
41756;DHT22;27435;48.480;9.258;2022-12-10T02:59:15;1.30;99.00
41756;DHT22;27435;48.480;9.258;2022-12-10T03:02:00;1.20;99.00
41756;DHT22;27435;48.480;9.258;2022-12-10T03:07:14;1.10;99.00
41756;DHT22;27435;48.480;9.258;2022-12-10T03:09:53;1.10;99.00
41756;DHT22;27435;48.480;9.258;2022-12-10T03:12:35;1.10;99.00
41756;DHT22;27435;48.480;9.258;2022-12-10T03:15:06;0.90;99.00
41756;DHT22;27435;48.480;9.258;2022-12-10T03:17:34;0.90;99.00
41756;DHT22;27435;48.480;9.258;2022-12-10T03:20:00;0.80;99.00
41756;DHT22;27435;48.480;9.258;2022-12-10T03:22:28;0.70;99.00
41756;DHT22;27435;48.480;9.258;2022-12-10T03:24:55;0.60;99.00
41756;DHT22;27435;48.480;9.258;2022-12-10T03:27:23;0.60;99.00
41756;DHT22;27435;48.480;9.258;2022-12-10T03:29:51;0.70;99.00
41756;DHT22;27435;48.480;9.258;2022-12-10T03:32:20;0.80;99.00
41756;DHT22;27435;48.480;9.258;2022-12-10T03:34:49;0.70;99.00
41756;DHT22;27435;48.480;9.258;2022-12-10T03:37:17;0.70;99.00
41756;DHT22;27435;48.480;9.258;2022-12-10T03:39:43;0.70;99.00
41756;DHT22;27435;48.480;9.258;2022-12-10T03:42:09;0.80;99.00
41756;DHT22;27435;48.480;9.258;2022-12-10T03:44:36;0.70;99.00
41756;DHT22;27435;48.480;9.258;2022-12-10T03:47:04;0.50;99.00
41756;DHT22;27435;48.480;9.258;2022-12-10T03:49:30;0.60;99.00
41756;DHT22;27435;48.480;9.258;2022-12-10T03:51:55;0.60;99.00
41756;DHT22;27435;48.480;9.258;2022-12-10T03:54:21;0.70;99.00
41756;DHT22;27435;48.480;9.258;2022-12-10T03:56:47;0.70;99.00
41756;DHT22;27435;48.480;9.258;2022-12-10T03:59:13;0.70;99.00
41756;DHT22;27435;48.480;9.258;2022-12-10T04:01:39;0.80;99.00
41756;DHT22;27435;48.480;9.258;2022-12-10T04:04:05;0.70;99.00
41756;DHT22;27435;48.480;9.258;2022-12-10T04:06:31;0.70;99.00
41756;DHT22;27435;48.480;9.258;2022-12-10T04:08:57;0.80;99.00
41756;DHT22;27435;48.480;9.258;2022-12-10T04:11:22;0.70;99.00
41756;DHT22;27435;48.480;9.258;2022-12-10T04:13:48;0.70;99.00
41756;DHT22;27435;48.480;9.258;2022-12-10T04:16:34;0.70;99.00
41756;DHT22;27435;48.480;9.258;2022-12-10T04:19:01;0.90;99.00
41756;DHT22;27435;48.480;9.258;2022-12-10T04:21:29;0.80;99.00
41756;DHT22;27435;48.480;9.258;2022-12-10T04:24:15;0.80;99.00
41756;DHT22;27435;48.480;9.258;2022-12-10T04:27:03;0.80;99.00
41756;DHT22;27435;48.480;9.258;2022-12-10T04:29:30;0.90;99.00
41756;DHT22;27435;48.480;9.258;2022-12-10T04:31:56;0.80;99.00
41756;DHT22;27435;48.480;9.258;2022-12-10T04:34:22;0.70;99.00
41756;DHT22;27435;48.480;9.258;2022-12-10T04:36:49;0.80;99.00
41756;DHT22;27435;48.480;9.258;2022-12-10T04:39:15;0.90;99.00
41756;DHT22;27435;48.480;9.258;2022-12-10T04:41:43;0.90;99.00
41756;DHT22;27435;48.480;9.258;2022-12-10T04:44:08;0.90;99.00
41756;DHT22;27435;48.480;9.258;2022-12-10T04:46:35;0.80;99.00
41756;DHT22;27435;48.480;9.258;2022-12-10T04:49:01;0.70;99.00
41756;DHT22;27435;48.480;9.258;2022-12-10T04:51:27;0.80;99.00
41756;DHT22;27435;48.480;9.258;2022-12-10T04:53:52;0.80;99.00
41756;DHT22;27435;48.480;9.258;2022-12-10T04:56:18;0.70;99.00
41756;DHT22;27435;48.480;9.258;2022-12-10T04:58:43;0.70;99.00
41756;DHT22;27435;48.480;9.258;2022-12-10T05:01:10;0.80;99.00
41756;DHT22;27435;48.480;9.258;2022-12-10T05:03:38;0.60;99.00
41756;DHT22;27435;48.480;9.258;2022-12-10T05:06:06;0.60;99.00
41756;DHT22;27435;48.480;9.258;2022-12-10T05:08:32;0.70;99.00
41756;DHT22;27435;48.480;9.258;2022-12-10T05:11:15;0.70;99.00
41756;DHT22;27435;48.480;9.258;2022-12-10T05:13:41;0.60;99.00
41756;DHT22;27435;48.480;9.258;2022-12-10T05:16:09;0.60;99.00
41756;DHT22;27435;48.480;9.258;2022-12-10T05:18:35;0.50;99.00
41756;DHT22;27435;48.480;9.258;2022-12-10T05:21:03;0.50;99.00
41756;DHT22;27435;48.480;9.258;2022-12-10T05:23:29;0.70;99.00
41756;DHT22;27435;48.480;9.258;2022-12-10T05:26:12;0.70;99.00
41756;DHT22;27435;48.480;9.258;2022-12-10T05:28:42;0.80;99.00
41756;DHT22;27435;48.480;9.258;2022-12-10T05:31:16;0.80;99.00
41756;DHT22;27435;48.480;9.258;2022-12-10T05:33:42;1.10;99.00
41756;DHT22;27435;48.480;9.258;2022-12-10T05:36:10;1.10;99.00
41756;DHT22;27435;48.480;9.258;2022-12-10T05:38:36;1.20;99.00
41756;DHT22;27435;48.480;9.258;2022-12-10T05:41:03;1.20;99.00
41756;DHT22;27435;48.480;9.258;2022-12-10T05:43:29;1.20;99.00
41756;DHT22;27435;48.480;9.258;2022-12-10T05:46:02;1.20;99.00
41756;DHT22;27435;48.480;9.258;2022-12-10T05:48:29;0.90;99.00
41756;DHT22;27435;48.480;9.258;2022-12-10T05:50:55;0.80;99.00
41756;DHT22;27435;48.480;9.258;2022-12-10T05:53:20;0.90;99.00
41756;DHT22;27435;48.480;9.258;2022-12-10T05:55:46;1.00;99.00
41756;DHT22;27435;48.480;9.258;2022-12-10T05:58:12;0.80;99.00
41756;DHT22;27435;48.480;9.258;2022-12-10T06:00:39;0.80;99.00
41756;DHT22;27435;48.480;9.258;2022-12-10T06:03:05;0.70;99.00
41756;DHT22;27435;48.480;9.258;2022-12-10T06:05:39;0.60;99.00
41756;DHT22;27435;48.480;9.258;2022-12-10T06:08:06;0.80;99.00
41756;DHT22;27435;48.480;9.258;2022-12-10T06:10:34;0.70;99.00
41756;DHT22;27435;48.480;9.258;2022-12-10T06:13:01;0.80;99.00
41756;DHT22;27435;48.480;9.258;2022-12-10T06:15:26;0.70;99.00
41756;DHT22;27435;48.480;9.258;2022-12-10T06:17:53;0.70;99.00
41756;DHT22;27435;48.480;9.258;2022-12-10T06:20:19;0.60;99.00
41756;DHT22;27435;48.480;9.258;2022-12-10T06:22:44;0.60;99.00
41756;DHT22;27435;48.480;9.258;2022-12-10T06:25:10;0.60;99.00
41756;DHT22;27435;48.480;9.258;2022-12-10T06:27:35;0.60;99.00
41756;DHT22;27435;48.480;9.258;2022-12-10T06:30:01;0.70;99.00
41756;DHT22;27435;48.480;9.258;2022-12-10T06:32:27;0.80;99.00
41756;DHT22;27435;48.480;9.258;2022-12-10T06:34:52;0.80;99.00
41756;DHT22;27435;48.480;9.258;2022-12-10T06:37:18;0.70;99.00
41756;DHT22;27435;48.480;9.258;2022-12-10T06:39:44;0.70;99.00
41756;DHT22;27435;48.480;9.258;2022-12-10T06:42:09;0.80;99.00
41756;DHT22;27435;48.480;9.258;2022-12-10T06:44:35;0.90;99.00
41756;DHT22;27435;48.480;9.258;2022-12-10T06:47:01;1.00;99.00
41756;DHT22;27435;48.480;9.258;2022-12-10T06:49:26;1.00;99.00
41756;DHT22;27435;48.480;9.258;2022-12-10T06:51:52;1.20;99.00
41756;DHT22;27435;48.480;9.258;2022-12-10T06:54:18;1.30;99.00
41756;DHT22;27435;48.480;9.258;2022-12-10T06:56:43;1.40;99.00
41756;DHT22;27435;48.480;9.258;2022-12-10T06:59:09;1.40;99.00
41756;DHT22;27435;48.480;9.258;2022-12-10T07:01:37;1.40;99.00
41756;DHT22;27435;48.480;9.258;2022-12-10T07:04:04;1.30;99.00
41756;DHT22;27435;48.480;9.258;2022-12-10T07:06:31;1.10;99.00
41756;DHT22;27435;48.480;9.258;2022-12-10T07:08:57;1.10;99.00
41756;DHT22;27435;48.480;9.258;2022-12-10T07:11:24;0.90;99.00
41756;DHT22;27435;48.480;9.258;2022-12-10T07:13:50;0.80;99.00
41756;DHT22;27435;48.480;9.258;2022-12-10T07:16:26;0.70;99.00
41756;DHT22;27435;48.480;9.258;2022-12-10T07:18:53;0.50;99.00
41756;DHT22;27435;48.480;9.258;2022-12-10T07:21:20;0.60;99.00
41756;DHT22;27435;48.480;9.258;2022-12-10T07:23:46;0.60;99.00
41756;DHT22;27435;48.480;9.258;2022-12-10T07:26:12;0.50;99.00
41756;DHT22;27435;48.480;9.258;2022-12-10T07:28:37;0.50;99.00
41756;DHT22;27435;48.480;9.258;2022-12-10T07:31:05;0.50;99.00
41756;DHT22;27435;48.480;9.258;2022-12-10T07:33:31;0.60;99.00
41756;DHT22;27435;48.480;9.258;2022-12-10T07:35:57;0.50;99.00
41756;DHT22;27435;48.480;9.258;2022-12-10T07:38:23;0.70;99.00
41756;DHT22;27435;48.480;9.258;2022-12-10T07:40:50;0.70;99.00
41756;DHT22;27435;48.480;9.258;2022-12-10T07:43:15;0.50;99.00
41756;DHT22;27435;48.480;9.258;2022-12-10T07:45:41;0.50;99.00
41756;DHT22;27435;48.480;9.258;2022-12-10T07:48:07;0.50;99.00
41756;DHT22;27435;48.480;9.258;2022-12-10T07:50:32;0.60;99.00
41756;DHT22;27435;48.480;9.258;2022-12-10T07:52:58;0.60;99.00
41756;DHT22;27435;48.480;9.258;2022-12-10T07:55:24;0.60;99.00
41756;DHT22;27435;48.480;9.258;2022-12-10T07:57:49;0.70;99.00
41756;DHT22;27435;48.480;9.258;2022-12-10T08:00:15;0.70;99.00
41756;DHT22;27435;48.480;9.258;2022-12-10T08:02:41;0.70;99.00
41756;DHT22;27435;48.480;9.258;2022-12-10T08:05:07;0.70;99.00
41756;DHT22;27435;48.480;9.258;2022-12-10T08:07:33;0.70;99.00
41756;DHT22;27435;48.480;9.258;2022-12-10T08:09:58;0.70;99.00
41756;DHT22;27435;48.480;9.258;2022-12-10T08:12:24;0.70;99.00
41756;DHT22;27435;48.480;9.258;2022-12-10T08:14:49;0.70;99.00
41756;DHT22;27435;48.480;9.258;2022-12-10T08:17:15;0.70;99.00
41756;DHT22;27435;48.480;9.258;2022-12-10T08:19:40;0.70;99.00
41756;DHT22;27435;48.480;9.258;2022-12-10T08:22:06;0.70;99.00
41756;DHT22;27435;48.480;9.258;2022-12-10T08:24:32;0.70;99.00
41756;DHT22;27435;48.480;9.258;2022-12-10T08:26:57;0.70;99.00
41756;DHT22;27435;48.480;9.258;2022-12-10T08:29:23;0.60;99.00
41756;DHT22;27435;48.480;9.258;2022-12-10T08:31:48;0.70;99.00
41756;DHT22;27435;48.480;9.258;2022-12-10T08:34:16;0.80;99.00
41756;DHT22;27435;48.480;9.258;2022-12-10T08:36:43;1.00;99.00
41756;DHT22;27435;48.480;9.258;2022-12-10T08:39:08;1.00;99.00
41756;DHT22;27435;48.480;9.258;2022-12-10T08:41:36;1.00;99.00
41756;DHT22;27435;48.480;9.258;2022-12-10T08:44:02;1.00;99.00
41756;DHT22;27435;48.480;9.258;2022-12-10T08:46:28;1.00;99.00
41756;DHT22;27435;48.480;9.258;2022-12-10T08:48:54;1.00;99.00
41756;DHT22;27435;48.480;9.258;2022-12-10T08:51:20;1.00;99.00
41756;DHT22;27435;48.480;9.258;2022-12-10T08:53:47;1.10;99.00
41756;DHT22;27435;48.480;9.258;2022-12-10T08:56:13;1.10;99.00
41756;DHT22;27435;48.480;9.258;2022-12-10T08:58:39;1.10;99.00
41756;DHT22;27435;48.480;9.258;2022-12-10T09:01:07;1.10;99.00
41756;DHT22;27435;48.480;9.258;2022-12-10T09:03:33;1.00;99.00
41756;DHT22;27435;48.480;9.258;2022-12-10T09:06:02;0.80;99.00
41756;DHT22;27435;48.480;9.258;2022-12-10T09:08:28;1.00;99.00
41756;DHT22;27435;48.480;9.258;2022-12-10T09:10:54;1.00;99.00
41756;DHT22;27435;48.480;9.258;2022-12-10T09:13:19;1.00;99.00
41756;DHT22;27435;48.480;9.258;2022-12-10T09:15:52;0.90;99.00
41756;DHT22;27435;48.480;9.258;2022-12-10T09:18:18;1.00;99.00
41756;DHT22;27435;48.480;9.258;2022-12-10T09:20:44;0.90;99.00
41756;DHT22;27435;48.480;9.258;2022-12-10T09:23:09;1.00;99.00
41756;DHT22;27435;48.480;9.258;2022-12-10T09:25:35;1.00;99.00
41756;DHT22;27435;48.480;9.258;2022-12-10T09:28:00;1.10;99.00
41756;DHT22;27435;48.480;9.258;2022-12-10T09:30:26;1.00;99.00
41756;DHT22;27435;48.480;9.258;2022-12-10T09:32:52;1.00;99.00
41756;DHT22;27435;48.480;9.258;2022-12-10T09:35:17;0.90;99.00
41756;DHT22;27435;48.480;9.258;2022-12-10T09:37:43;1.00;99.00
41756;DHT22;27435;48.480;9.258;2022-12-10T09:40:17;1.00;99.00
41756;DHT22;27435;48.480;9.258;2022-12-10T09:42:55;1.10;99.00
41756;DHT22;27435;48.480;9.258;2022-12-10T09:45:48;1.10;99.00
41756;DHT22;27435;48.480;9.258;2022-12-10T09:51:08;1.10;99.00
41756;DHT22;27435;48.480;9.258;2022-12-10T09:53:37;1.30;99.00
41756;DHT22;27435;48.480;9.258;2022-12-10T09:56:03;1.30;99.00
41756;DHT22;27435;48.480;9.258;2022-12-10T09:58:29;1.30;99.00
41756;DHT22;27435;48.480;9.258;2022-12-10T10:01:04;1.30;99.00
41756;DHT22;27435;48.480;9.258;2022-12-10T10:03:38;1.20;99.00
41756;DHT22;27435;48.480;9.258;2022-12-10T10:06:04;1.10;99.00
41756;DHT22;27435;48.480;9.258;2022-12-10T10:08:34;1.20;99.00
41756;DHT22;27435;48.480;9.258;2022-12-10T10:11:03;1.30;99.00
41756;DHT22;27435;48.480;9.258;2022-12-10T10:13:43;1.40;99.00
41756;DHT22;27435;48.480;9.258;2022-12-10T10:21:22;1.30;99.00
41756;DHT22;27435;48.480;9.258;2022-12-10T10:23:48;1.30;99.00
41756;DHT22;27435;48.480;9.258;2022-12-10T10:26:20;1.20;99.00
41756;DHT22;27435;48.480;9.258;2022-12-10T10:28:48;1.20;99.00
41756;DHT22;27435;48.480;9.258;2022-12-10T10:31:20;1.10;99.00
41756;DHT22;27435;48.480;9.258;2022-12-10T10:34:11;1.10;99.00
41756;DHT22;27435;48.480;9.258;2022-12-10T10:36:39;1.00;99.00
41756;DHT22;27435;48.480;9.258;2022-12-10T10:41:49;1.00;99.00
41756;DHT22;27435;48.480;9.258;2022-12-10T10:44:19;0.90;99.00
41756;DHT22;27435;48.480;9.258;2022-12-10T10:46:47;0.90;99.00
41756;DHT22;27435;48.480;9.258;2022-12-10T10:49:33;1.20;99.00
41756;DHT22;27435;48.480;9.258;2022-12-10T10:52:05;1.20;99.00
41756;DHT22;27435;48.480;9.258;2022-12-10T10:54:45;1.10;99.00
41756;DHT22;27435;48.480;9.258;2022-12-10T11:00:05;1.10;99.00
41756;DHT22;27435;48.480;9.258;2022-12-10T11:02:40;1.30;99.00
41756;DHT22;27435;48.480;9.258;2022-12-10T11:05:14;1.40;99.00
41756;DHT22;27435;48.480;9.258;2022-12-10T11:07:41;1.50;99.00
41756;DHT22;27435;48.480;9.258;2022-12-10T11:10:20;1.50;99.00
41756;DHT22;27435;48.480;9.258;2022-12-10T11:12:58;1.50;99.00
41756;DHT22;27435;48.480;9.258;2022-12-10T11:18:00;1.50;99.00
41756;DHT22;27435;48.480;9.258;2022-12-10T11:22:55;1.40;99.00
41756;DHT22;27435;48.480;9.258;2022-12-10T11:25:53;1.40;99.00
41756;DHT22;27435;48.480;9.258;2022-12-10T11:37:31;1.40;99.00
41756;DHT22;27435;48.480;9.258;2022-12-10T11:54:22;1.30;99.00
41756;DHT22;27435;48.480;9.258;2022-12-10T11:57:28;1.30;99.00
41756;DHT22;27435;48.480;9.258;2022-12-10T12:00:20;1.40;99.00
41756;DHT22;27435;48.480;9.258;2022-12-10T12:14:26;1.70;99.00
41756;DHT22;27435;48.480;9.258;2022-12-10T12:20:37;1.50;99.00
41756;DHT22;27435;48.480;9.258;2022-12-10T12:23:11;1.70;99.00
41756;DHT22;27435;48.480;9.258;2022-12-10T12:25:53;1.50;99.00
41756;DHT22;27435;48.480;9.258;2022-12-10T12:30:57;1.50;99.00
41756;DHT22;27435;48.480;9.258;2022-12-10T12:33:38;1.50;99.00
41756;DHT22;27435;48.480;9.258;2022-12-10T12:36:15;1.40;99.00
41756;DHT22;27435;48.480;9.258;2022-12-10T12:46:46;1.50;99.00
41756;DHT22;27435;48.480;9.258;2022-12-10T12:49:37;1.40;99.00
41756;DHT22;27435;48.480;9.258;2022-12-10T12:52:30;1.40;99.00
41756;DHT22;27435;48.480;9.258;2022-12-10T12:55:02;1.30;99.00
41756;DHT22;27435;48.480;9.258;2022-12-10T13:00:28;1.30;99.00
41756;DHT22;27435;48.480;9.258;2022-12-10T13:05:47;1.30;99.00
41756;DHT22;27435;48.480;9.258;2022-12-10T13:13:34;1.40;99.00
41756;DHT22;27435;48.480;9.258;2022-12-10T13:22:08;1.20;99.00
41756;DHT22;27435;48.480;9.258;2022-12-10T13:40:41;1.40;99.00
41756;DHT22;27435;48.480;9.258;2022-12-10T13:49:04;1.40;99.00
41756;DHT22;27435;48.480;9.258;2022-12-10T13:54:22;1.20;99.00
41756;DHT22;27435;48.480;9.258;2022-12-10T14:07:13;1.10;99.00
41756;DHT22;27435;48.480;9.258;2022-12-10T14:09:50;1.20;99.00
41756;DHT22;27435;48.480;9.258;2022-12-10T14:12:33;1.10;99.00
41756;DHT22;27435;48.480;9.258;2022-12-10T14:15:04;1.10;99.00
41756;DHT22;27435;48.480;9.258;2022-12-10T14:17:39;1.20;99.00
41756;DHT22;27435;48.480;9.258;2022-12-10T14:20:08;1.20;99.00
41756;DHT22;27435;48.480;9.258;2022-12-10T14:22:43;1.10;99.00
41756;DHT22;27435;48.480;9.258;2022-12-10T14:25:13;1.10;99.00
41756;DHT22;27435;48.480;9.258;2022-12-10T14:27:39;1.20;99.00
41756;DHT22;27435;48.480;9.258;2022-12-10T14:30:25;1.10;99.00
41756;DHT22;27435;48.480;9.258;2022-12-10T14:32:56;1.20;99.00
41756;DHT22;27435;48.480;9.258;2022-12-10T14:35:26;1.20;99.00
41756;DHT22;27435;48.480;9.258;2022-12-10T14:37:55;1.10;99.00
41756;DHT22;27435;48.480;9.258;2022-12-10T14:40:27;1.30;99.00
41756;DHT22;27435;48.480;9.258;2022-12-10T14:43:02;1.30;99.00
41756;DHT22;27435;48.480;9.258;2022-12-10T14:45:56;1.10;99.00
41756;DHT22;27435;48.480;9.258;2022-12-10T14:48:21;0.80;99.00
41756;DHT22;27435;48.480;9.258;2022-12-10T14:50:47;0.80;99.00
41756;DHT22;27435;48.480;9.258;2022-12-10T14:53:16;0.90;99.00
41756;DHT22;27435;48.480;9.258;2022-12-10T14:55:45;0.90;99.00
41756;DHT22;27435;48.480;9.258;2022-12-10T14:58:27;1.00;99.00
41756;DHT22;27435;48.480;9.258;2022-12-10T15:00:55;0.90;99.00
41756;DHT22;27435;48.480;9.258;2022-12-10T15:03:28;0.80;99.00
41756;DHT22;27435;48.480;9.258;2022-12-10T15:05:56;0.60;99.00
41756;DHT22;27435;48.480;9.258;2022-12-10T15:08:24;0.60;99.00
41756;DHT22;27435;48.480;9.258;2022-12-10T15:10:57;0.70;99.00
41756;DHT22;27435;48.480;9.258;2022-12-10T15:13:29;0.50;99.00
41756;DHT22;27435;48.480;9.258;2022-12-10T15:15:57;0.40;99.00
41756;DHT22;27435;48.480;9.258;2022-12-10T15:18:38;0.40;99.00
41756;DHT22;27435;48.480;9.258;2022-12-10T15:21:19;0.50;99.00
41756;DHT22;27435;48.480;9.258;2022-12-10T15:23:46;0.50;99.00
41756;DHT22;27435;48.480;9.258;2022-12-10T15:26:19;0.50;99.00
41756;DHT22;27435;48.480;9.258;2022-12-10T15:28:46;0.40;99.00
41756;DHT22;27435;48.480;9.258;2022-12-10T15:39:03;0.30;99.00
41756;DHT22;27435;48.480;9.258;2022-12-10T15:41:40;0.10;99.00
41756;DHT22;27435;48.480;9.258;2022-12-10T15:47:03;0.20;99.00
41756;DHT22;27435;48.480;9.258;2022-12-10T15:49:34;0.20;99.00
41756;DHT22;27435;48.480;9.258;2022-12-10T15:52:00;0.20;99.00
41756;DHT22;27435;48.480;9.258;2022-12-10T15:54:43;0.30;99.00
41756;DHT22;27435;48.480;9.258;2022-12-10T15:57:19;0.30;99.00
41756;DHT22;27435;48.480;9.258;2022-12-10T15:59:47;0.30;99.00
41756;DHT22;27435;48.480;9.258;2022-12-10T16:05:01;0.20;99.00
41756;DHT22;27435;48.480;9.258;2022-12-10T16:07:28;0.10;99.00
41756;DHT22;27435;48.480;9.258;2022-12-10T16:09:53;0.10;99.00
41756;DHT22;27435;48.480;9.258;2022-12-10T16:12:19;0.00;99.00
41756;DHT22;27435;48.480;9.258;2022-12-10T16:14:54;0.00;99.00
41756;DHT22;27435;48.480;9.258;2022-12-10T16:17:28;0.00;99.00
41756;DHT22;27435;48.480;9.258;2022-12-10T16:20:39;0.00;99.00
41756;DHT22;27435;48.480;9.258;2022-12-10T16:22:46;0.00;99.00
41756;DHT22;27435;48.480;9.258;2022-12-10T16:25:13;0.00;99.00
41756;DHT22;27435;48.480;9.258;2022-12-10T16:27:39;0.00;99.00
41756;DHT22;27435;48.480;9.258;2022-12-10T16:30:35;0.20;99.00
41756;DHT22;27435;48.480;9.258;2022-12-10T16:33:02;0.20;99.00
41756;DHT22;27435;48.480;9.258;2022-12-10T16:35:28;0.10;99.00
41756;DHT22;27435;48.480;9.258;2022-12-10T16:37:53;0.10;99.00
41756;DHT22;27435;48.480;9.258;2022-12-10T16:40:25;0.10;99.00
41756;DHT22;27435;48.480;9.258;2022-12-10T16:42:52;-0.10;99.00
41756;DHT22;27435;48.480;9.258;2022-12-10T16:45:22;-0.10;99.00
41756;DHT22;27435;48.480;9.258;2022-12-10T16:47:49;-0.10;99.00
41756;DHT22;27435;48.480;9.258;2022-12-10T16:50:16;-0.10;99.00
41756;DHT22;27435;48.480;9.258;2022-12-10T16:52:42;-0.10;99.00
41756;DHT22;27435;48.480;9.258;2022-12-10T16:55:14;0.00;99.00
41756;DHT22;27435;48.480;9.258;2022-12-10T16:57:40;-0.10;99.00
41756;DHT22;27435;48.480;9.258;2022-12-10T17:00:06;-0.20;99.00
41756;DHT22;27435;48.480;9.258;2022-12-10T17:02:32;-0.10;99.00
41756;DHT22;27435;48.480;9.258;2022-12-10T17:04:58;-0.10;99.00
41756;DHT22;27435;48.480;9.258;2022-12-10T17:07:24;-0.10;99.00
41756;DHT22;27435;48.480;9.258;2022-12-10T17:09:49;-0.10;99.00
41756;DHT22;27435;48.480;9.258;2022-12-10T17:12:15;-0.10;99.00
41756;DHT22;27435;48.480;9.258;2022-12-10T17:14:43;0.00;99.00
41756;DHT22;27435;48.480;9.258;2022-12-10T17:17:15;-0.10;99.00
41756;DHT22;27435;48.480;9.258;2022-12-10T17:19:41;-0.10;99.00
41756;DHT22;27435;48.480;9.258;2022-12-10T17:22:08;0.00;99.00
41756;DHT22;27435;48.480;9.258;2022-12-10T17:24:35;0.00;99.00
41756;DHT22;27435;48.480;9.258;2022-12-10T17:27:13;0.00;99.00
41756;DHT22;27435;48.480;9.258;2022-12-10T17:29:41;-0.10;99.00
41756;DHT22;27435;48.480;9.258;2022-12-10T17:32:13;-0.10;99.00
41756;DHT22;27435;48.480;9.258;2022-12-10T17:34:39;-0.10;99.00
41756;DHT22;27435;48.480;9.258;2022-12-10T17:37:10;-0.10;99.00
41756;DHT22;27435;48.480;9.258;2022-12-10T17:39:36;0.00;99.00
41756;DHT22;27435;48.480;9.258;2022-12-10T17:42:02;0.00;99.00
41756;DHT22;27435;48.480;9.258;2022-12-10T17:44:27;-0.10;99.00
41756;DHT22;27435;48.480;9.258;2022-12-10T17:46:53;0.00;99.00
41756;DHT22;27435;48.480;9.258;2022-12-10T17:49:19;0.00;99.00
41756;DHT22;27435;48.480;9.258;2022-12-10T17:51:44;0.00;99.00
41756;DHT22;27435;48.480;9.258;2022-12-10T17:54:10;-0.10;99.00
41756;DHT22;27435;48.480;9.258;2022-12-10T17:56:36;0.00;99.00
41756;DHT22;27435;48.480;9.258;2022-12-10T17:59:03;-0.10;99.00
41756;DHT22;27435;48.480;9.258;2022-12-10T18:01:29;-0.20;99.00
41756;DHT22;27435;48.480;9.258;2022-12-10T18:03:56;-0.20;99.00
41756;DHT22;27435;48.480;9.258;2022-12-10T18:06:29;-0.10;99.00
41756;DHT22;27435;48.480;9.258;2022-12-10T18:08:58;0.10;99.00
41756;DHT22;27435;48.480;9.258;2022-12-10T18:11:32;0.10;99.00
41756;DHT22;27435;48.480;9.258;2022-12-10T18:13:58;0.10;99.00
41756;DHT22;27435;48.480;9.258;2022-12-10T18:16:28;-0.10;99.00
41756;DHT22;27435;48.480;9.258;2022-12-10T18:18:57;-0.10;99.00
41756;DHT22;27435;48.480;9.258;2022-12-10T18:21:23;0.00;99.00